createdAt,value
2022-11-30T00:03:40.558Z,4.13
2022-11-30T00:08:42.762Z,2.83
2022-11-30T00:13:44.817Z,2.40
2022-11-30T00:18:46.690Z,3.45
2022-11-30T00:23:49.150Z,2.85
2022-11-30T00:28:50.948Z,3.25
2022-11-30T00:33:52.586Z,3.67
2022-11-30T00:38:54.408Z,3.47
2022-11-30T00:43:56.061Z,3.40
2022-11-30T00:48:57.755Z,3.83
2022-11-30T00:53:59.451Z,3.47
2022-11-30T00:59:01.219Z,3.45
2022-11-30T01:04:04.716Z,3.67
2022-11-30T01:09:06.491Z,3.40
2022-11-30T01:14:08.266Z,4.35
2022-11-30T01:19:09.917Z,3.60
2022-11-30T01:24:11.753Z,4.32
2022-11-30T01:29:13.388Z,3.97
2022-11-30T01:34:15.082Z,6.57
2022-11-30T01:39:16.840Z,4.28
2022-11-30T01:44:20.307Z,4.70
2022-11-30T01:49:47.373Z,4.85
2022-11-30T01:54:57.881Z,7.38
2022-11-30T02:00:01.936Z,3.85
2022-11-30T02:05:03.711Z,4.43
2022-11-30T02:10:06.067Z,3.85
2022-11-30T02:15:15.587Z,6.40
2022-11-30T02:20:34.531Z,6.95
2022-11-30T02:25:47.062Z,5.47
2022-11-30T02:30:52.458Z,6.53
2022-11-30T02:35:56.035Z,5.53
2022-11-30T02:40:57.818Z,5.65
2022-11-30T02:46:17.161Z,6.50
2022-11-30T02:51:22.466Z,5.50
2022-11-30T02:56:25.016Z,6.35
2022-11-30T03:01:26.771Z,5.20
2022-11-30T03:06:28.496Z,5.35
2022-11-30T03:11:30.232Z,5.75
2022-11-30T03:16:33.589Z,7.10
2022-11-30T03:21:35.359Z,6.22
2022-11-30T03:26:37.032Z,7.65
2022-11-30T03:31:38.710Z,7.30
2022-11-30T03:36:40.435Z,6.60
2022-11-30T03:41:42.212Z,7.18
2022-11-30T03:46:43.963Z,7.47
2022-11-30T03:51:45.598Z,7.68
2022-11-30T03:56:47.374Z,8.27
2022-11-30T04:01:49.107Z,10.48
2022-11-30T04:06:50.925Z,10.80
2022-11-30T04:11:52.577Z,10.48
2022-11-30T04:16:54.269Z,9.70
2022-11-30T04:21:55.900Z,11.45
2022-11-30T04:26:57.521Z,10.52
2022-11-30T04:31:59.205Z,10.65
2022-11-30T04:37:00.963Z,10.00
2022-11-30T04:42:02.833Z,11.43
2022-11-30T04:47:04.619Z,11.50
2022-11-30T04:52:06.331Z,12.35
2022-11-30T04:57:08.048Z,11.95
2022-11-30T05:02:10.036Z,11.48
2022-11-30T05:07:11.707Z,12.40
2022-11-30T05:12:13.350Z,11.80
2022-11-30T05:17:15.025Z,11.73
2022-11-30T05:22:16.866Z,12.07
2022-11-30T05:27:22.469Z,13.55
2022-11-30T05:32:24.543Z,13.27
2022-11-30T05:37:26.329Z,13.27
2022-11-30T05:42:28.333Z,13.55
2022-11-30T05:47:30.204Z,13.77
2022-11-30T05:52:31.882Z,12.75
2022-11-30T05:57:37.701Z,13.40
2022-11-30T06:02:39.462Z,13.10
2022-11-30T06:07:41.707Z,12.90
2022-11-30T06:12:43.396Z,13.20
2022-11-30T06:17:44.996Z,13.55
2022-11-30T06:22:47.442Z,12.98
2022-11-30T06:27:49.319Z,13.55
2022-11-30T06:32:52.522Z,13.88
2022-11-30T06:37:55.126Z,13.93
2022-11-30T06:42:56.855Z,12.57
2022-11-30T06:47:58.665Z,13.02
2022-11-30T06:53:00.421Z,14.43
2022-11-30T06:58:06.294Z,14.27
2022-11-30T07:03:07.996Z,14.20
2022-11-30T07:08:10.468Z,14.32
2022-11-30T07:13:13.989Z,14.85
2022-11-30T07:18:15.792Z,15.20
2022-11-30T07:23:35.816Z,14.90
2022-11-30T07:28:43.246Z,13.95
2022-11-30T07:33:45.424Z,15.10
2022-11-30T07:38:47.439Z,16.60
2022-11-30T07:43:49.170Z,16.05
2022-11-30T07:48:50.828Z,14.60
2022-11-30T07:53:52.460Z,15.38
2022-11-30T07:58:56.945Z,15.57
2022-11-30T08:03:59.136Z,18.15
2022-11-30T08:09:03.982Z,15.30
2022-11-30T08:14:05.693Z,17.23
2022-11-30T08:19:07.412Z,16.50
2022-11-30T08:24:12.002Z,16.73
2022-11-30T08:29:13.768Z,16.80
2022-11-30T08:34:15.364Z,17.92
2022-11-30T08:39:17.055Z,17.02
2022-11-30T08:44:18.794Z,16.23
2022-11-30T08:54:46.079Z,16.70
2022-11-30T08:59:48.617Z,25.35
2022-11-30T09:04:51.751Z,16.80
2022-11-30T09:09:53.444Z,20.67
2022-11-30T09:14:58.386Z,14.65
2022-11-30T09:20:01.250Z,15.82
2022-11-30T09:25:03.130Z,15.88
2022-11-30T09:30:05.320Z,16.60
2022-11-30T09:35:12.454Z,17.35
2022-11-30T09:40:16.059Z,16.35
2022-11-30T09:45:25.036Z,16.35
2022-11-30T09:50:32.005Z,16.60
2022-11-30T09:55:39.403Z,16.02
2022-11-30T10:00:41.144Z,15.48
2022-11-30T10:05:49.908Z,13.98
2022-11-30T10:11:00.814Z,15.95
2022-11-30T10:16:11.745Z,14.50
2022-11-30T10:21:26.895Z,14.38
2022-11-30T10:26:35.739Z,14.95
2022-11-30T10:31:40.054Z,14.85
2022-11-30T10:36:45.021Z,14.48
2022-11-30T10:41:52.531Z,16.13
2022-11-30T10:47:12.457Z,16.40
2022-11-30T10:52:22.256Z,16.00
2022-11-30T10:57:32.113Z,17.92
2022-11-30T11:02:36.832Z,17.02
2022-11-30T11:08:06.897Z,16.00
2022-11-30T11:18:29.543Z,15.85
2022-11-30T11:23:38.071Z,14.95
2022-11-30T11:28:45.740Z,15.18
2022-11-30T11:33:54.314Z,14.80
2022-11-30T11:38:56.889Z,13.90
2022-11-30T11:44:25.859Z,13.77
2022-11-30T11:49:30.185Z,14.07
2022-11-30T11:54:49.311Z,15.50
2022-11-30T12:00:00.569Z,15.75
2022-11-30T12:05:18.894Z,15.70
2022-11-30T12:10:52.656Z,15.65
2022-11-30T12:16:00.889Z,16.20
2022-11-30T12:21:13.069Z,18.58
2022-11-30T12:26:20.601Z,16.65
2022-11-30T12:31:31.194Z,14.70
2022-11-30T12:36:44.296Z,14.80
2022-11-30T12:41:58.611Z,15.90
2022-11-30T12:47:17.834Z,17.00
2022-11-30T12:52:56.900Z,16.23
2022-11-30T12:58:15.183Z,18.50
2022-11-30T13:03:39.325Z,16.95
2022-11-30T13:08:55.937Z,18.80
2022-11-30T13:14:00.144Z,21.23
2022-11-30T13:19:34.179Z,16.50
2022-11-30T13:24:42.162Z,17.60
2022-11-30T13:30:04.158Z,17.42
2022-11-30T13:35:27.863Z,19.38
2022-11-30T13:40:29.926Z,19.30
2022-11-30T13:45:34.644Z,18.23
2022-11-30T13:50:40.221Z,19.02
2022-11-30T13:55:42.614Z,19.25
2022-11-30T14:01:04.436Z,20.05
2022-11-30T14:06:44.521Z,18.25
2022-11-30T14:11:46.340Z,18.67
2022-11-30T14:16:48.823Z,18.58
2022-11-30T14:21:50.678Z,17.85
2022-11-30T14:26:52.757Z,18.75
2022-11-30T14:32:03.233Z,20.50
2022-11-30T14:37:21.226Z,18.98
2022-11-30T14:42:28.485Z,18.88
2022-11-30T14:47:36.512Z,18.67
2022-11-30T14:53:05.524Z,19.25
2022-11-30T14:58:30.919Z,26.48
2022-11-30T15:03:40.304Z,20.48
2022-11-30T15:08:47.813Z,20.40
2022-11-30T15:14:06.480Z,20.77
2022-11-30T15:19:28.033Z,20.60
2022-11-30T15:24:30.552Z,21.38
2022-11-30T15:29:38.773Z,21.23
2022-11-30T15:34:51.120Z,21.73
2022-11-30T15:39:58.273Z,21.15
2022-11-30T15:45:16.041Z,21.85
2022-11-30T15:50:26.462Z,21.65
2022-11-30T15:55:43.864Z,23.30
2022-11-30T16:01:09.430Z,21.98
2022-11-30T16:06:19.597Z,22.02
2022-11-30T16:11:21.634Z,22.10
2022-11-30T16:16:28.678Z,22.48
2022-11-30T16:21:30.543Z,24.35
2022-11-30T16:31:53.985Z,22.42
2022-11-30T16:37:10.937Z,21.42
2022-11-30T16:42:12.905Z,22.58
2022-11-30T16:47:14.603Z,23.70
2022-11-30T16:52:19.207Z,23.52
2022-11-30T16:57:20.961Z,24.52
2022-11-30T17:02:23.613Z,24.45
2022-11-30T17:07:25.482Z,23.98
2022-11-30T17:12:27.203Z,24.15
2022-11-30T17:17:28.907Z,25.42
2022-11-30T17:22:30.834Z,24.15
2022-11-30T17:27:32.504Z,22.65
2022-11-30T17:32:34.299Z,23.83
2022-11-30T17:37:36.098Z,23.17
2022-11-30T17:42:37.759Z,23.45
2022-11-30T17:47:39.399Z,22.67
2022-11-30T17:52:41.107Z,24.30
2022-11-30T17:57:42.931Z,22.45
2022-11-30T18:02:44.642Z,23.77
2022-11-30T18:07:47.109Z,22.55
2022-11-30T18:12:49.137Z,23.85
2022-11-30T18:17:50.827Z,25.17
2022-11-30T18:22:52.485Z,24.05
2022-11-30T18:33:14.264Z,24.80
2022-11-30T18:38:17.146Z,24.48
2022-11-30T18:43:19.228Z,25.42
2022-11-30T18:48:20.950Z,25.30
2022-11-30T18:53:22.706Z,23.27
2022-11-30T18:58:24.499Z,22.48
2022-11-30T19:03:26.649Z,23.33
2022-11-30T19:08:29.439Z,23.38
2022-11-30T19:13:37.044Z,22.40
2022-11-30T19:18:39.559Z,25.00
2022-11-30T19:23:41.901Z,23.70
2022-11-30T19:28:44.722Z,23.73
2022-11-30T19:33:48.561Z,22.90
2022-11-30T19:38:51.496Z,23.80
2022-11-30T19:44:03.211Z,25.08
2022-11-30T19:49:08.009Z,25.95
2022-11-30T19:54:10.761Z,26.25
2022-11-30T19:59:12.491Z,23.75
2022-11-30T20:04:14.305Z,24.20
2022-11-30T20:14:39.501Z,24.48
2022-11-30T20:19:41.175Z,24.42
2022-11-30T20:24:42.985Z,24.73
2022-11-30T20:29:44.641Z,24.88
2022-11-30T20:34:46.637Z,24.58
2022-11-30T20:39:48.447Z,23.38
2022-11-30T20:44:50.276Z,24.85
2022-11-30T20:49:52.304Z,24.73
2022-11-30T20:54:53.958Z,25.90
2022-11-30T20:59:55.689Z,26.05
2022-11-30T21:04:57.459Z,26.50
2022-11-30T21:09:59.158Z,25.80
2022-11-30T21:15:00.931Z,25.20
2022-11-30T21:20:03.902Z,28.63
2022-11-30T21:25:05.916Z,26.33
2022-11-30T21:30:08.312Z,26.77
2022-11-30T21:35:10.253Z,29.08
2022-11-30T21:40:13.325Z,28.30
2022-11-30T21:45:15.037Z,28.85
2022-11-30T21:50:16.778Z,27.33
2022-11-30T21:55:18.456Z,28.23
2022-11-30T22:00:20.603Z,26.80
2022-11-30T22:05:22.342Z,27.98
2022-11-30T22:10:24.030Z,28.92
2022-11-30T22:15:25.994Z,27.45
2022-11-30T22:20:27.672Z,29.48
2022-11-30T22:25:29.345Z,27.92
2022-11-30T22:30:33.807Z,28.52
2022-11-30T22:35:35.865Z,27.42
2022-11-30T22:40:59.033Z,28.65
2022-11-30T22:46:06.058Z,27.23
2022-11-30T22:51:13.447Z,26.63
2022-11-30T22:56:18.450Z,28.00
2022-11-30T23:01:26.025Z,28.63
2022-11-30T23:06:28.370Z,26.88
2022-11-30T23:11:33.380Z,27.40
2022-11-30T23:16:38.379Z,27.25
2022-11-30T23:21:42.372Z,27.45
2022-11-30T23:26:44.665Z,27.30
2022-11-30T23:31:47.562Z,26.13
2022-11-30T23:36:50.265Z,26.60
2022-11-30T23:41:52.048Z,26.15
2022-11-30T23:46:54.000Z,25.13
2022-11-30T23:51:56.028Z,27.98
2022-11-30T23:57:00.483Z,28.23
